This is the latest recevied weather packets stored in our database for station/object VE7KNL-13. If no packets are shown the sender has not sent any weather packets the latest 10 day(s).
| Time | Temp. | Humidity | Pressure | Rain* | Wind** | Luminosity | Snow |
|---|---|---|---|---|---|---|---|
| 1777863017 | 18.89° C | 47% | 1004.6 hPa | 0 mm | - | - | - |
| 1777861217 | 21.11° C | 41% | 1004.1 hPa | 0 mm | - | - | - |
| 1777854017 | 26.67° C | 23% | 1005.2 hPa | 0 mm | - | - | - |
| 1777853417 | 26.67° C | 20% | 1005.3 hPa | 0 mm | - | - | - |
| 1777852817 | 27.22° C | 19% | 1005.4 hPa | 0 mm | - | - | - |
| 1777848616 | 27.78° C | 20% | 1006.4 hPa | 0 mm | - | - | - |
| 1777843836 | 27.22° C | 21% | 1007.8 hPa | 0 mm | - | - | - |
| 1777842016 | 27.22° C | 21% | 1008.1 hPa | 0 mm | - | - | - |
| 1777836036 | 24.44° C | 31% | 1009.5 hPa | 0 mm | - | - | - |
| 1777835418 | 23.89° C | 29% | 1009.8 hPa | 0 mm | - | - | - |
| 1777831818 | 21.67° C | 35% | 1010.8 hPa | 0 mm | - | - | - |
| 1777827617 | 17.78° C | 43% | 1011.4 hPa | 0 mm | - | - | - |
| 1777820417 | 10° C | 68% | 1013 hPa | 0 mm | - | - | - |
| 1777815617 | 2.22° C | 90% | 1013.2 hPa | 0 mm | - | - | - |
| 1777814417 | 2.22° C | 89% | 1013.1 hPa | 0 mm | - | - | - |
| 1777812657 | 2.22° C | 89% | 1013.1 hPa | 0 mm | - | - | - |
| 1777806617 | 3.89° C | 85% | 1013.4 hPa | 0 mm | - | - | - |
| 1777803016 | 4.44° C | 82% | 1013.5 hPa | 0 mm | - | - | - |
| 1777800016 | 5.56° C | 79% | 1013.2 hPa | 0 mm | - | - | - |
| 1777799416 | 5.56° C | 79% | 1013.3 hPa | 0 mm | - | - | - |
| 1777794036 | 7.22° C | 73% | 1013.6 hPa | 0 mm | - | - | - |
| 1777790418 | 8.89° C | 68% | 1013.3 hPa | 0 mm | - | - | - |
| 1777788618 | 10° C | 66% | 1013.2 hPa | 0 mm | - | - | - |
| 1777788018 | 10° C | 65% | 1013.2 hPa | 0 mm | - | - | - |
| 1777786818 | 11.11° C | 62% | 1013 hPa | 0 mm | - | - | - |
* Rain latest hour (hover to see other rain measurements)
** Current wind speed in m/s (hover to see current wind gust speed)